sensor_id;sensor_type;location;lat;lon;timestamp;temperature;humidity
69901;DHT22;57183;50.930;5.406;2022-12-18T00:01:42;-4.40;99.90
69901;DHT22;57183;50.930;5.406;2022-12-18T00:04:18;-4.50;99.90
69901;DHT22;57183;50.930;5.406;2022-12-18T00:06:45;-4.80;99.90
69901;DHT22;57183;50.930;5.406;2022-12-18T00:09:10;-5.00;99.90
69901;DHT22;57183;50.930;5.406;2022-12-18T00:11:36;-5.20;99.90
69901;DHT22;57183;50.930;5.406;2022-12-18T00:14:02;-5.30;99.90
69901;DHT22;57183;50.930;5.406;2022-12-18T00:16:29;-5.20;99.90
69901;DHT22;57183;50.930;5.406;2022-12-18T00:18:57;-5.30;99.90
69901;DHT22;57183;50.930;5.406;2022-12-18T00:21:23;-5.20;99.90
69901;DHT22;57183;50.930;5.406;2022-12-18T00:23:49;-5.10;99.90
69901;DHT22;57183;50.930;5.406;2022-12-18T00:26:18;-4.90;99.90
69901;DHT22;57183;50.930;5.406;2022-12-18T00:28:45;-4.80;99.90
69901;DHT22;57183;50.930;5.406;2022-12-18T00:31:14;-4.80;99.90
69901;DHT22;57183;50.930;5.406;2022-12-18T00:33:40;-4.90;99.90
69901;DHT22;57183;50.930;5.406;2022-12-18T00:36:13;-4.80;99.90
69901;DHT22;57183;50.930;5.406;2022-12-18T00:38:39;-4.80;99.90
69901;DHT22;57183;50.930;5.406;2022-12-18T00:41:06;-4.80;99.90
69901;DHT22;57183;50.930;5.406;2022-12-18T00:43:34;-4.80;99.90
69901;DHT22;57183;50.930;5.406;2022-12-18T00:45:59;-4.80;99.90
69901;DHT22;57183;50.930;5.406;2022-12-18T00:48:25;-4.70;99.90
69901;DHT22;57183;50.930;5.406;2022-12-18T00:50:51;-4.70;99.90
69901;DHT22;57183;50.930;5.406;2022-12-18T00:53:17;-4.60;99.90
69901;DHT22;57183;50.930;5.406;2022-12-18T00:55:43;-4.60;99.90
69901;DHT22;57183;50.930;5.406;2022-12-18T00:58:11;-4.90;99.90
69901;DHT22;57183;50.930;5.406;2022-12-18T01:00:37;-5.10;99.90
69901;DHT22;57183;50.930;5.406;2022-12-18T01:03:04;-5.20;99.90
69901;DHT22;57183;50.930;5.406;2022-12-18T01:05:29;-5.00;99.90
69901;DHT22;57183;50.930;5.406;2022-12-18T01:07:55;-5.10;99.90
69901;DHT22;57183;50.930;5.406;2022-12-18T01:10:22;-5.20;99.90
69901;DHT22;57183;50.930;5.406;2022-12-18T01:12:47;-5.20;99.90
69901;DHT22;57183;50.930;5.406;2022-12-18T01:15:14;-5.10;99.90
69901;DHT22;57183;50.930;5.406;2022-12-18T01:17:39;-5.20;99.90
69901;DHT22;57183;50.930;5.406;2022-12-18T01:20:06;-4.90;99.90
69901;DHT22;57183;50.930;5.406;2022-12-18T01:22:32;-4.80;99.90
69901;DHT22;57183;50.930;5.406;2022-12-18T01:24:58;-4.80;99.90
69901;DHT22;57183;50.930;5.406;2022-12-18T01:27:23;-4.80;99.90
69901;DHT22;57183;50.930;5.406;2022-12-18T01:29:49;-4.90;99.90
69901;DHT22;57183;50.930;5.406;2022-12-18T01:32:15;-5.00;99.90
69901;DHT22;57183;50.930;5.406;2022-12-18T01:34:41;-5.10;99.90
69901;DHT22;57183;50.930;5.406;2022-12-18T01:37:06;-5.20;99.90
69901;DHT22;57183;50.930;5.406;2022-12-18T01:39:32;-5.50;99.90
69901;DHT22;57183;50.930;5.406;2022-12-18T01:42:08;-5.50;99.90
69901;DHT22;57183;50.930;5.406;2022-12-18T01:44:54;-5.60;99.90
69901;DHT22;57183;50.930;5.406;2022-12-18T01:47:46;-5.40;99.90
69901;DHT22;57183;50.930;5.406;2022-12-18T01:50:15;-5.40;99.90
69901;DHT22;57183;50.930;5.406;2022-12-18T01:52:55;-5.50;99.90
69901;DHT22;57183;50.930;5.406;2022-12-18T01:55:25;-5.30;99.90
69901;DHT22;57183;50.930;5.406;2022-12-18T01:57:54;-5.40;99.90
69901;DHT22;57183;50.930;5.406;2022-12-18T02:00:22;-5.50;99.90
69901;DHT22;57183;50.930;5.406;2022-12-18T02:02:48;-5.60;99.90
69901;DHT22;57183;50.930;5.406;2022-12-18T02:05:23;-5.70;99.90
69901;DHT22;57183;50.930;5.406;2022-12-18T02:08:12;-5.80;99.90
69901;DHT22;57183;50.930;5.406;2022-12-18T02:18:12;-5.90;99.90
69901;DHT22;57183;50.930;5.406;2022-12-18T02:20:48;-6.00;99.90
69901;DHT22;57183;50.930;5.406;2022-12-18T02:28:35;-6.00;99.90
69901;DHT22;57183;50.930;5.406;2022-12-18T02:31:04;-5.90;99.90
69901;DHT22;57183;50.930;5.406;2022-12-18T02:33:33;-6.00;99.90
69901;DHT22;57183;50.930;5.406;2022-12-18T02:36:01;-5.90;99.90
69901;DHT22;57183;50.930;5.406;2022-12-18T02:38:28;-5.80;99.90
69901;DHT22;57183;50.930;5.406;2022-12-18T02:40:55;-5.70;99.90
69901;DHT22;57183;50.930;5.406;2022-12-18T02:43:21;-5.80;99.90
69901;DHT22;57183;50.930;5.406;2022-12-18T02:45:58;-5.80;99.90
69901;DHT22;57183;50.930;5.406;2022-12-18T02:48:28;-5.80;99.90
69901;DHT22;57183;50.930;5.406;2022-12-18T02:51:06;-5.60;99.90
69901;DHT22;57183;50.930;5.406;2022-12-18T02:53:43;-5.60;99.90
69901;DHT22;57183;50.930;5.406;2022-12-18T02:56:18;-5.50;99.90
69901;DHT22;57183;50.930;5.406;2022-12-18T02:58:52;-5.40;99.90
69901;DHT22;57183;50.930;5.406;2022-12-18T03:01:34;-5.50;99.90
69901;DHT22;57183;50.930;5.406;2022-12-18T03:04:17;-5.40;99.90
69901;DHT22;57183;50.930;5.406;2022-12-18T03:06:50;-5.70;99.90
69901;DHT22;57183;50.930;5.406;2022-12-18T03:09:22;-6.00;99.90
69901;DHT22;57183;50.930;5.406;2022-12-18T03:11:56;-6.10;99.90
69901;DHT22;57183;50.930;5.406;2022-12-18T03:14:43;-5.80;99.90
69901;DHT22;57183;50.930;5.406;2022-12-18T03:17:14;-5.90;99.90
69901;DHT22;57183;50.930;5.406;2022-12-18T03:19:42;-6.00;99.90
69901;DHT22;57183;50.930;5.406;2022-12-18T03:22:10;-5.80;99.90
69901;DHT22;57183;50.930;5.406;2022-12-18T03:24:36;-5.90;99.90
69901;DHT22;57183;50.930;5.406;2022-12-18T03:27:08;-5.90;99.90
69901;DHT22;57183;50.930;5.406;2022-12-18T03:29:38;-5.80;99.90
69901;DHT22;57183;50.930;5.406;2022-12-18T03:32:09;-5.90;99.90
69901;DHT22;57183;50.930;5.406;2022-12-18T03:34:38;-5.90;99.90
69901;DHT22;57183;50.930;5.406;2022-12-18T03:37:06;-5.90;99.90
69901;DHT22;57183;50.930;5.406;2022-12-18T03:39:32;-6.00;99.90
69901;DHT22;57183;50.930;5.406;2022-12-18T03:47:41;-5.90;99.90
69901;DHT22;57183;50.930;5.406;2022-12-18T03:50:12;-5.80;99.90
69901;DHT22;57183;50.930;5.406;2022-12-18T03:55:30;-5.70;99.90
69901;DHT22;57183;50.930;5.406;2022-12-18T03:57:57;-5.70;99.90
69901;DHT22;57183;50.930;5.406;2022-12-18T04:00:24;-5.80;99.90
69901;DHT22;57183;50.930;5.406;2022-12-18T04:02:52;-5.90;99.90
69901;DHT22;57183;50.930;5.406;2022-12-18T04:05:19;-5.90;99.90
69901;DHT22;57183;50.930;5.406;2022-12-18T04:07:48;-5.80;99.90
69901;DHT22;57183;50.930;5.406;2022-12-18T04:10:17;-6.00;99.90
69901;DHT22;57183;50.930;5.406;2022-12-18T04:12:43;-6.00;99.90
69901;DHT22;57183;50.930;5.406;2022-12-18T04:15:10;-6.00;99.90
69901;DHT22;57183;50.930;5.406;2022-12-18T04:17:36;-6.10;99.90
69901;DHT22;57183;50.930;5.406;2022-12-18T04:20:03;-6.20;99.90
69901;DHT22;57183;50.930;5.406;2022-12-18T04:22:29;-6.20;99.90
69901;DHT22;57183;50.930;5.406;2022-12-18T04:24:54;-6.40;99.90
69901;DHT22;57183;50.930;5.406;2022-12-18T04:27:20;-6.50;99.90
69901;DHT22;57183;50.930;5.406;2022-12-18T04:29:46;-6.50;99.90
69901;DHT22;57183;50.930;5.406;2022-12-18T04:32:11;-6.70;99.90
69901;DHT22;57183;50.930;5.406;2022-12-18T04:34:37;-6.80;99.90
69901;DHT22;57183;50.930;5.406;2022-12-18T04:37:02;-6.80;99.90
69901;DHT22;57183;50.930;5.406;2022-12-18T04:39:28;-6.80;99.90
69901;DHT22;57183;50.930;5.406;2022-12-18T04:41:54;-6.80;99.90
69901;DHT22;57183;50.930;5.406;2022-12-18T04:44:19;-6.70;99.90
69901;DHT22;57183;50.930;5.406;2022-12-18T04:46:45;-6.50;99.90
69901;DHT22;57183;50.930;5.406;2022-12-18T04:49:11;-6.50;99.90
69901;DHT22;57183;50.930;5.406;2022-12-18T04:51:37;-6.50;99.90
69901;DHT22;57183;50.930;5.406;2022-12-18T04:54:03;-6.50;99.90
69901;DHT22;57183;50.930;5.406;2022-12-18T04:56:31;-6.30;99.90
69901;DHT22;57183;50.930;5.406;2022-12-18T04:58:57;-6.30;99.90
69901;DHT22;57183;50.930;5.406;2022-12-18T05:01:22;-6.40;99.90
69901;DHT22;57183;50.930;5.406;2022-12-18T05:03:48;-6.50;99.90
69901;DHT22;57183;50.930;5.406;2022-12-18T05:06:14;-6.40;99.90
69901;DHT22;57183;50.930;5.406;2022-12-18T05:08:40;-6.40;99.90
69901;DHT22;57183;50.930;5.406;2022-12-18T05:11:08;-6.30;99.90
69901;DHT22;57183;50.930;5.406;2022-12-18T05:13:35;-6.30;99.90
69901;DHT22;57183;50.930;5.406;2022-12-18T05:16:02;-6.40;99.90
69901;DHT22;57183;50.930;5.406;2022-12-18T05:18:28;-6.40;99.90
69901;DHT22;57183;50.930;5.406;2022-12-18T05:20:54;-6.50;99.90
69901;DHT22;57183;50.930;5.406;2022-12-18T05:23:20;-6.50;99.90
69901;DHT22;57183;50.930;5.406;2022-12-18T05:25:54;-6.50;99.90
69901;DHT22;57183;50.930;5.406;2022-12-18T05:28:21;-6.50;99.90
69901;DHT22;57183;50.930;5.406;2022-12-18T05:30:52;-6.80;99.90
69901;DHT22;57183;50.930;5.406;2022-12-18T05:33:18;-6.70;99.90
69901;DHT22;57183;50.930;5.406;2022-12-18T05:35:49;-6.70;99.90
69901;DHT22;57183;50.930;5.406;2022-12-18T05:38:15;-6.70;99.90
69901;DHT22;57183;50.930;5.406;2022-12-18T05:40:44;-6.80;99.90
69901;DHT22;57183;50.930;5.406;2022-12-18T05:43:10;-6.70;99.90
69901;DHT22;57183;50.930;5.406;2022-12-18T05:45:39;-6.50;99.90
69901;DHT22;57183;50.930;5.406;2022-12-18T05:48:06;-6.40;99.90
69901;DHT22;57183;50.930;5.406;2022-12-18T05:50:34;-6.30;99.90
69901;DHT22;57183;50.930;5.406;2022-12-18T05:53:01;-6.20;99.90
69901;DHT22;57183;50.930;5.406;2022-12-18T05:55:27;-6.30;99.90
69901;DHT22;57183;50.930;5.406;2022-12-18T05:57:52;-6.40;99.90
69901;DHT22;57183;50.930;5.406;2022-12-18T06:00:18;-6.50;99.90
69901;DHT22;57183;50.930;5.406;2022-12-18T06:02:47;-6.50;99.90
69901;DHT22;57183;50.930;5.406;2022-12-18T06:05:12;-6.60;99.90
69901;DHT22;57183;50.930;5.406;2022-12-18T06:07:38;-6.70;99.90
69901;DHT22;57183;50.930;5.406;2022-12-18T06:10:04;-6.70;99.90
69901;DHT22;57183;50.930;5.406;2022-12-18T06:12:30;-6.60;99.90
69901;DHT22;57183;50.930;5.406;2022-12-18T06:14:56;-6.70;99.90
69901;DHT22;57183;50.930;5.406;2022-12-18T06:17:21;-6.60;99.90
69901;DHT22;57183;50.930;5.406;2022-12-18T06:19:47;-6.40;99.90
69901;DHT22;57183;50.930;5.406;2022-12-18T06:22:13;-6.70;99.90
69901;DHT22;57183;50.930;5.406;2022-12-18T06:24:38;-6.60;99.90
69901;DHT22;57183;50.930;5.406;2022-12-18T06:27:04;-6.60;99.90
69901;DHT22;57183;50.930;5.406;2022-12-18T06:29:30;-6.40;99.90
69901;DHT22;57183;50.930;5.406;2022-12-18T06:31:55;-6.40;99.90
69901;DHT22;57183;50.930;5.406;2022-12-18T06:34:21;-6.30;99.90
69901;DHT22;57183;50.930;5.406;2022-12-18T06:36:47;-6.30;99.90
69901;DHT22;57183;50.930;5.406;2022-12-18T06:39:12;-6.30;99.90
69901;DHT22;57183;50.930;5.406;2022-12-18T06:41:38;-6.30;99.90
69901;DHT22;57183;50.930;5.406;2022-12-18T06:44:03;-6.40;99.90
69901;DHT22;57183;50.930;5.406;2022-12-18T06:46:29;-6.20;99.90
69901;DHT22;57183;50.930;5.406;2022-12-18T06:48:55;-6.20;99.90
69901;DHT22;57183;50.930;5.406;2022-12-18T06:51:22;-6.30;99.90
69901;DHT22;57183;50.930;5.406;2022-12-18T06:53:48;-6.30;99.90
69901;DHT22;57183;50.930;5.406;2022-12-18T06:56:14;-6.40;99.90
69901;DHT22;57183;50.930;5.406;2022-12-18T06:58:39;-6.30;99.90
69901;DHT22;57183;50.930;5.406;2022-12-18T07:01:08;-6.40;99.90
69901;DHT22;57183;50.930;5.406;2022-12-18T07:03:34;-6.30;99.90
69901;DHT22;57183;50.930;5.406;2022-12-18T07:06:00;-6.30;99.90
69901;DHT22;57183;50.930;5.406;2022-12-18T07:08:25;-6.20;99.90
69901;DHT22;57183;50.930;5.406;2022-12-18T07:10:51;-6.20;99.90
69901;DHT22;57183;50.930;5.406;2022-12-18T07:13:17;-6.20;99.90
69901;DHT22;57183;50.930;5.406;2022-12-18T07:15:43;-6.20;99.90
69901;DHT22;57183;50.930;5.406;2022-12-18T07:18:09;-6.10;99.90
69901;DHT22;57183;50.930;5.406;2022-12-18T07:20:35;-6.10;99.90
69901;DHT22;57183;50.930;5.406;2022-12-18T07:23:04;-6.20;99.90
69901;DHT22;57183;50.930;5.406;2022-12-18T07:25:35;-6.20;99.90
69901;DHT22;57183;50.930;5.406;2022-12-18T07:28:01;-6.40;99.90
69901;DHT22;57183;50.930;5.406;2022-12-18T07:30:26;-6.40;99.90
69901;DHT22;57183;50.930;5.406;2022-12-18T07:32:52;-6.40;99.90
69901;DHT22;57183;50.930;5.406;2022-12-18T07:35:18;-6.30;99.90
69901;DHT22;57183;50.930;5.406;2022-12-18T07:37:44;-6.30;99.90
69901;DHT22;57183;50.930;5.406;2022-12-18T07:40:10;-6.40;99.90
69901;DHT22;57183;50.930;5.406;2022-12-18T07:42:36;-6.30;99.90
69901;DHT22;57183;50.930;5.406;2022-12-18T07:45:03;-6.20;99.90
69901;DHT22;57183;50.930;5.406;2022-12-18T07:47:29;-6.20;99.90
69901;DHT22;57183;50.930;5.406;2022-12-18T07:49:54;-5.90;99.90
69901;DHT22;57183;50.930;5.406;2022-12-18T07:52:21;-6.10;99.90
69901;DHT22;57183;50.930;5.406;2022-12-18T07:54:47;-6.00;99.90
69901;DHT22;57183;50.930;5.406;2022-12-18T07:57:15;-6.00;99.90
69901;DHT22;57183;50.930;5.406;2022-12-18T07:59:41;-5.90;99.90
69901;DHT22;57183;50.930;5.406;2022-12-18T08:02:07;-6.00;99.90
69901;DHT22;57183;50.930;5.406;2022-12-18T08:04:33;-6.10;99.90
69901;DHT22;57183;50.930;5.406;2022-12-18T08:06:58;-6.10;99.90
69901;DHT22;57183;50.930;5.406;2022-12-18T08:09:24;-6.10;99.90
69901;DHT22;57183;50.930;5.406;2022-12-18T08:11:50;-6.10;99.90
69901;DHT22;57183;50.930;5.406;2022-12-18T08:14:15;-6.00;99.90
69901;DHT22;57183;50.930;5.406;2022-12-18T08:16:41;-5.90;99.90
69901;DHT22;57183;50.930;5.406;2022-12-18T08:19:07;-6.00;99.90
69901;DHT22;57183;50.930;5.406;2022-12-18T08:21:32;-6.00;99.90
69901;DHT22;57183;50.930;5.406;2022-12-18T08:24:00;-6.00;99.90
69901;DHT22;57183;50.930;5.406;2022-12-18T08:26:27;-5.90;99.90
69901;DHT22;57183;50.930;5.406;2022-12-18T08:28:55;-5.90;99.90
69901;DHT22;57183;50.930;5.406;2022-12-18T08:31:21;-5.80;99.90
69901;DHT22;57183;50.930;5.406;2022-12-18T08:33:49;-5.70;99.90
69901;DHT22;57183;50.930;5.406;2022-12-18T08:36:15;-5.60;99.90
69901;DHT22;57183;50.930;5.406;2022-12-18T08:38:41;-5.30;99.90
69901;DHT22;57183;50.930;5.406;2022-12-18T08:41:09;-5.50;99.90
69901;DHT22;57183;50.930;5.406;2022-12-18T08:43:35;-5.30;99.90
69901;DHT22;57183;50.930;5.406;2022-12-18T08:46:21;-5.20;99.90
69901;DHT22;57183;50.930;5.406;2022-12-18T08:48:48;-5.00;99.90
69901;DHT22;57183;50.930;5.406;2022-12-18T08:51:18;-4.80;99.90
69901;DHT22;57183;50.930;5.406;2022-12-18T08:53:45;-4.60;99.90
69901;DHT22;57183;50.930;5.406;2022-12-18T08:56:12;-4.50;99.90
69901;DHT22;57183;50.930;5.406;2022-12-18T08:58:38;-4.40;99.90
69901;DHT22;57183;50.930;5.406;2022-12-18T09:01:05;-4.20;99.90
69901;DHT22;57183;50.930;5.406;2022-12-18T09:03:31;-4.20;99.90
69901;DHT22;57183;50.930;5.406;2022-12-18T09:05:58;-4.10;99.90
69901;DHT22;57183;50.930;5.406;2022-12-18T09:08:25;-3.60;99.90
69901;DHT22;57183;50.930;5.406;2022-12-18T09:10:51;-3.10;99.90
69901;DHT22;57183;50.930;5.406;2022-12-18T09:13:17;-2.70;99.90
69901;DHT22;57183;50.930;5.406;2022-12-18T09:15:51;-2.50;99.90
69901;DHT22;57183;50.930;5.406;2022-12-18T09:18:18;-2.20;99.90
69901;DHT22;57183;50.930;5.406;2022-12-18T09:20:45;-2.10;99.90
69901;DHT22;57183;50.930;5.406;2022-12-18T09:23:11;-1.90;99.90
69901;DHT22;57183;50.930;5.406;2022-12-18T09:25:37;-1.70;99.90
69901;DHT22;57183;50.930;5.406;2022-12-18T09:30:30;-1.60;99.90
69901;DHT22;57183;50.930;5.406;2022-12-18T09:32:59;-1.30;99.90
69901;DHT22;57183;50.930;5.406;2022-12-18T09:35:25;-1.20;99.90
69901;DHT22;57183;50.930;5.406;2022-12-18T09:37:51;-1.30;99.90
69901;DHT22;57183;50.930;5.406;2022-12-18T09:40:20;-1.30;99.90
69901;DHT22;57183;50.930;5.406;2022-12-18T09:42:53;-1.30;99.90
69901;DHT22;57183;50.930;5.406;2022-12-18T09:45:20;-1.20;99.90
69901;DHT22;57183;50.930;5.406;2022-12-18T09:47:47;-1.00;99.90
69901;DHT22;57183;50.930;5.406;2022-12-18T09:50:26;-0.90;99.90
69901;DHT22;57183;50.930;5.406;2022-12-18T09:52:56;-1.10;99.90
69901;DHT22;57183;50.930;5.406;2022-12-18T09:55:36;-1.10;99.90
69901;DHT22;57183;50.930;5.406;2022-12-18T09:58:31;-1.10;99.90
69901;DHT22;57183;50.930;5.406;2022-12-18T10:00:58;-1.30;99.90
69901;DHT22;57183;50.930;5.406;2022-12-18T10:03:24;-1.00;99.90
69901;DHT22;57183;50.930;5.406;2022-12-18T10:14:17;-0.70;99.90
69901;DHT22;57183;50.930;5.406;2022-12-18T10:19:40;-0.70;99.90
69901;DHT22;57183;50.930;5.406;2022-12-18T10:27:37;-0.50;99.90
69901;DHT22;57183;50.930;5.406;2022-12-18T10:30:12;-0.30;99.90
69901;DHT22;57183;50.930;5.406;2022-12-18T10:32:39;-0.30;99.90
69901;DHT22;57183;50.930;5.406;2022-12-18T10:35:07;-0.30;99.90
69901;DHT22;57183;50.930;5.406;2022-12-18T10:38:19;-0.30;99.90
69901;DHT22;57183;50.930;5.406;2022-12-18T10:43:47;0.10;99.90
69901;DHT22;57183;50.930;5.406;2022-12-18T10:46:19;0.20;99.90
69901;DHT22;57183;50.930;5.406;2022-12-18T10:48:56;0.40;99.90
69901;DHT22;57183;50.930;5.406;2022-12-18T10:51:25;0.60;99.90
69901;DHT22;57183;50.930;5.406;2022-12-18T10:54:15;0.70;99.90
69901;DHT22;57183;50.930;5.406;2022-12-18T10:56:43;0.70;99.90
69901;DHT22;57183;50.930;5.406;2022-12-18T10:59:12;0.70;99.90
69901;DHT22;57183;50.930;5.406;2022-12-18T11:01:55;0.90;99.90
69901;DHT22;57183;50.930;5.406;2022-12-18T11:04:26;1.10;99.90
69901;DHT22;57183;50.930;5.406;2022-12-18T11:07:04;1.10;99.90
69901;DHT22;57183;50.930;5.406;2022-12-18T11:09:32;1.10;99.90
69901;DHT22;57183;50.930;5.406;2022-12-18T11:12:01;1.00;99.90
69901;DHT22;57183;50.930;5.406;2022-12-18T11:14:30;0.70;99.90
69901;DHT22;57183;50.930;5.406;2022-12-18T11:16:58;0.70;99.90
69901;DHT22;57183;50.930;5.406;2022-12-18T11:19:39;0.90;99.90
69901;DHT22;57183;50.930;5.406;2022-12-18T11:22:24;0.90;99.90
69901;DHT22;57183;50.930;5.406;2022-12-18T11:25:00;0.90;99.90
69901;DHT22;57183;50.930;5.406;2022-12-18T11:27:28;1.10;99.90
69901;DHT22;57183;50.930;5.406;2022-12-18T11:32:48;1.30;99.90
69901;DHT22;57183;50.930;5.406;2022-12-18T11:35:23;1.30;99.90
69901;DHT22;57183;50.930;5.406;2022-12-18T11:37:59;1.40;99.90
69901;DHT22;57183;50.930;5.406;2022-12-18T11:40:36;1.60;99.90
69901;DHT22;57183;50.930;5.406;2022-12-18T11:45:40;1.70;99.90
69901;DHT22;57183;50.930;5.406;2022-12-18T11:50:51;1.90;99.90
69901;DHT22;57183;50.930;5.406;2022-12-18T11:53:17;2.10;99.90
69901;DHT22;57183;50.930;5.406;2022-12-18T11:56:01;2.30;99.90
69901;DHT22;57183;50.930;5.406;2022-12-18T12:31:07;2.70;99.90
69901;DHT22;57183;50.930;5.406;2022-12-18T12:36:26;2.50;99.90
69901;DHT22;57183;50.930;5.406;2022-12-18T12:38:59;2.60;99.90
69901;DHT22;57183;50.930;5.406;2022-12-18T12:41:31;2.70;99.90
69901;DHT22;57183;50.930;5.406;2022-12-18T12:44:28;2.50;99.90
69901;DHT22;57183;50.930;5.406;2022-12-18T12:46:59;2.60;99.90
69901;DHT22;57183;50.930;5.406;2022-12-18T12:49:28;2.50;99.90
69901;DHT22;57183;50.930;5.406;2022-12-18T12:52:06;2.50;99.90
69901;DHT22;57183;50.930;5.406;2022-12-18T12:54:33;2.30;99.90
69901;DHT22;57183;50.930;5.406;2022-12-18T13:05:38;2.50;99.90
69901;DHT22;57183;50.930;5.406;2022-12-18T13:08:08;2.60;99.90
69901;DHT22;57183;50.930;5.406;2022-12-18T13:10:41;2.60;99.90
69901;DHT22;57183;50.930;5.406;2022-12-18T13:13:12;2.60;99.90
69901;DHT22;57183;50.930;5.406;2022-12-18T13:20:39;2.70;99.90
69901;DHT22;57183;50.930;5.406;2022-12-18T13:25:53;2.70;99.90
69901;DHT22;57183;50.930;5.406;2022-12-18T13:36:35;2.70;99.90
69901;DHT22;57183;50.930;5.406;2022-12-18T13:41:43;2.60;99.90
69901;DHT22;57183;50.930;5.406;2022-12-18T13:44:34;2.50;99.90
69901;DHT22;57183;50.930;5.406;2022-12-18T13:47:02;2.70;99.90
69901;DHT22;57183;50.930;5.406;2022-12-18T13:49:41;2.70;99.90
69901;DHT22;57183;50.930;5.406;2022-12-18T13:52:20;2.60;99.90
69901;DHT22;57183;50.930;5.406;2022-12-18T13:54:57;2.60;99.90
69901;DHT22;57183;50.930;5.406;2022-12-18T13:57:36;2.50;99.90
69901;DHT22;57183;50.930;5.406;2022-12-18T14:00:27;2.50;99.90
69901;DHT22;57183;50.930;5.406;2022-12-18T14:02:55;2.70;99.90
69901;DHT22;57183;50.930;5.406;2022-12-18T14:05:32;2.60;99.90
69901;DHT22;57183;50.930;5.406;2022-12-18T14:08:05;2.40;99.90
69901;DHT22;57183;50.930;5.406;2022-12-18T14:10:31;2.30;99.90
69901;DHT22;57183;50.930;5.406;2022-12-18T14:12:57;2.10;99.90
69901;DHT22;57183;50.930;5.406;2022-12-18T14:15:34;2.00;99.90
69901;DHT22;57183;50.930;5.406;2022-12-18T14:18:03;2.00;99.90
69901;DHT22;57183;50.930;5.406;2022-12-18T14:20:35;2.00;99.90
69901;DHT22;57183;50.930;5.406;2022-12-18T14:23:01;2.30;99.90
69901;DHT22;57183;50.930;5.406;2022-12-18T14:25:28;2.30;99.90
69901;DHT22;57183;50.930;5.406;2022-12-18T14:28:13;2.20;99.90
69901;DHT22;57183;50.930;5.406;2022-12-18T14:30:44;2.10;99.90
69901;DHT22;57183;50.930;5.406;2022-12-18T14:33:17;2.20;99.90
69901;DHT22;57183;50.930;5.406;2022-12-18T14:36:05;2.20;99.90
69901;DHT22;57183;50.930;5.406;2022-12-18T14:41:01;2.20;99.90
69901;DHT22;57183;50.930;5.406;2022-12-18T14:43:29;2.20;99.90
69901;DHT22;57183;50.930;5.406;2022-12-18T14:45:56;2.10;99.90
69901;DHT22;57183;50.930;5.406;2022-12-18T14:48:41;1.90;99.90
69901;DHT22;57183;50.930;5.406;2022-12-18T14:51:16;1.80;99.90
69901;DHT22;57183;50.930;5.406;2022-12-18T14:53:48;1.80;99.90
69901;DHT22;57183;50.930;5.406;2022-12-18T14:58:51;1.60;99.90
69901;DHT22;57183;50.930;5.406;2022-12-18T15:01:31;1.60;99.90
69901;DHT22;57183;50.930;5.406;2022-12-18T15:03:58;1.40;99.90
69901;DHT22;57183;50.930;5.406;2022-12-18T15:06:33;1.40;99.90
69901;DHT22;57183;50.930;5.406;2022-12-18T15:09:02;1.60;99.90
69901;DHT22;57183;50.930;5.406;2022-12-18T15:14:40;1.80;99.90
69901;DHT22;57183;50.930;5.406;2022-12-18T15:17:17;1.70;99.90
69901;DHT22;57183;50.930;5.406;2022-12-18T15:19:45;1.50;99.90
69901;DHT22;57183;50.930;5.406;2022-12-18T15:22:26;1.30;99.90
69901;DHT22;57183;50.930;5.406;2022-12-18T15:24:54;1.10;99.90
69901;DHT22;57183;50.930;5.406;2022-12-18T15:27:26;1.10;99.90
69901;DHT22;57183;50.930;5.406;2022-12-18T15:32:36;1.20;99.90
69901;DHT22;57183;50.930;5.406;2022-12-18T15:37:33;1.10;99.90
69901;DHT22;57183;50.930;5.406;2022-12-18T15:39:59;1.10;99.90
69901;DHT22;57183;50.930;5.406;2022-12-18T15:42:25;0.90;99.90
69901;DHT22;57183;50.930;5.406;2022-12-18T15:45:12;1.00;99.90
69901;DHT22;57183;50.930;5.406;2022-12-18T15:47:39;0.90;99.90
69901;DHT22;57183;50.930;5.406;2022-12-18T15:50:05;0.90;99.90
69901;DHT22;57183;50.930;5.406;2022-12-18T15:52:39;0.90;99.90
69901;DHT22;57183;50.930;5.406;2022-12-18T15:55:10;0.90;99.90
69901;DHT22;57183;50.930;5.406;2022-12-18T15:57:55;0.90;99.90
69901;DHT22;57183;50.930;5.406;2022-12-18T16:00:21;0.90;99.90
69901;DHT22;57183;50.930;5.406;2022-12-18T16:02:46;1.00;99.90
69901;DHT22;57183;50.930;5.406;2022-12-18T16:05:17;1.10;99.90
69901;DHT22;57183;50.930;5.406;2022-12-18T16:07:44;1.20;99.90
69901;DHT22;57183;50.930;5.406;2022-12-18T16:10:10;1.30;99.90
69901;DHT22;57183;50.930;5.406;2022-12-18T16:12:36;1.40;99.90
69901;DHT22;57183;50.930;5.406;2022-12-18T16:15:02;1.30;99.90
69901;DHT22;57183;50.930;5.406;2022-12-18T16:17:28;1.50;99.90
69901;DHT22;57183;50.930;5.406;2022-12-18T16:19:54;1.60;99.90
69901;DHT22;57183;50.930;5.406;2022-12-18T16:22:30;1.80;99.90
69901;DHT22;57183;50.930;5.406;2022-12-18T16:24:56;1.90;99.90
69901;DHT22;57183;50.930;5.406;2022-12-18T16:27:23;1.70;99.90
69901;DHT22;57183;50.930;5.406;2022-12-18T16:29:49;1.50;99.90
69901;DHT22;57183;50.930;5.406;2022-12-18T16:32:20;1.40;99.90
69901;DHT22;57183;50.930;5.406;2022-12-18T16:34:46;1.40;99.90
69901;DHT22;57183;50.930;5.406;2022-12-18T16:37:13;1.50;99.90
69901;DHT22;57183;50.930;5.406;2022-12-18T16:39:40;1.60;99.90
69901;DHT22;57183;50.930;5.406;2022-12-18T16:42:17;1.50;99.90
69901;DHT22;57183;50.930;5.406;2022-12-18T16:44:45;1.50;99.90
69901;DHT22;57183;50.930;5.406;2022-12-18T16:47:12;1.50;99.90
69901;DHT22;57183;50.930;5.406;2022-12-18T16:49:38;1.40;99.90
69901;DHT22;57183;50.930;5.406;2022-12-18T16:52:05;1.50;99.90
69901;DHT22;57183;50.930;5.406;2022-12-18T16:54:31;1.60;99.90
69901;DHT22;57183;50.930;5.406;2022-12-18T16:56:59;1.60;99.90
69901;DHT22;57183;50.930;5.406;2022-12-18T16:59:25;1.70;99.90
69901;DHT22;57183;50.930;5.406;2022-12-18T17:01:51;1.70;99.90
69901;DHT22;57183;50.930;5.406;2022-12-18T17:04:17;1.50;99.90
69901;DHT22;57183;50.930;5.406;2022-12-18T17:06:44;1.30;99.90
69901;DHT22;57183;50.930;5.406;2022-12-18T17:09:12;1.20;99.90
69901;DHT22;57183;50.930;5.406;2022-12-18T17:11:39;1.20;99.90
69901;DHT22;57183;50.930;5.406;2022-12-18T17:14:19;1.20;99.90
69901;DHT22;57183;50.930;5.406;2022-12-18T17:16:46;1.20;99.90
69901;DHT22;57183;50.930;5.406;2022-12-18T17:19:12;1.50;99.90
69901;DHT22;57183;50.930;5.406;2022-12-18T17:21:38;1.50;99.90
69901;DHT22;57183;50.930;5.406;2022-12-18T17:24:04;1.50;99.90
69901;DHT22;57183;50.930;5.406;2022-12-18T17:26:30;1.40;99.90
69901;DHT22;57183;50.930;5.406;2022-12-18T17:28:57;1.40;99.90
69901;DHT22;57183;50.930;5.406;2022-12-18T17:31:25;1.40;99.90
69901;DHT22;57183;50.930;5.406;2022-12-18T17:33:50;1.50;99.90
69901;DHT22;57183;50.930;5.406;2022-12-18T17:36:17;1.40;99.90
69901;DHT22;57183;50.930;5.406;2022-12-18T17:38:48;1.40;99.90
69901;DHT22;57183;50.930;5.406;2022-12-18T17:41:14;1.40;99.90
69901;DHT22;57183;50.930;5.406;2022-12-18T17:43:40;1.40;99.90
69901;DHT22;57183;50.930;5.406;2022-12-18T17:46:12;1.50;99.90
69901;DHT22;57183;50.930;5.406;2022-12-18T17:48:38;1.50;99.90
69901;DHT22;57183;50.930;5.406;2022-12-18T17:51:06;1.50;99.90
69901;DHT22;57183;50.930;5.406;2022-12-18T17:53:32;1.50;99.90
69901;DHT22;57183;50.930;5.406;2022-12-18T17:55:59;1.60;99.90
69901;DHT22;57183;50.930;5.406;2022-12-18T17:58:26;1.60;99.90